Time;durP1;ratioP1;P1;durP2;ratioP2;P2;SDS_P1;SDS_P2;PMS_P1;PMS_P2;Temp;Humidity;BMP_temperature;BMP_pressure;BME280_temperature;BME280_humidity;BME280_pressure;Samples;Min_cycle;Max_cycle;Signal;HPM_P1;HPM_P2
2022/03/03 00:01:02;;;;;;;0.20;0.20;;;;;;;4.71;68.62;100656.03;5053283;28;20029;-73
2022/03/03 00:03:28;;;;;;;0.20;0.20;;;;;;;4.52;68.84;100629.78;5035464;28;20070;-73
2022/03/03 00:05:53;;;;;;;0.20;0.20;;;;;;;4.58;69.36;100651.41;5056295;28;20067;-73
2022/03/03 00:08:19;;;;;;;0.20;0.20;;;;;;;4.56;69.64;100656.41;5056876;28;20025;-73
2022/03/03 00:10:45;;;;;;;0.20;0.20;;;;;;;4.56;69.76;100664.66;5039347;28;20063;-74
2022/03/03 00:13:12;;;;;;;0.20;0.20;;;;;;;4.52;69.79;100647.13;5056769;28;20048;-73
2022/03/03 00:15:37;;;;;;;0.20;0.20;;;;;;;4.49;69.87;100647.75;5057065;28;20029;-73
2022/03/03 00:18:03;;;;;;;0.20;0.20;;;;;;;4.57;70.18;100655.28;5038689;28;20029;-73
2022/03/03 00:20:28;;;;;;;0.20;0.20;;;;;;;4.56;69.50;100647.31;5056685;28;20048;-73
2022/03/03 00:22:55;;;;;;;0.20;0.20;;;;;;;4.61;69.76;100655.47;5056848;28;20383;-73
2022/03/03 00:25:24;;;;;;;0.20;0.20;;;;;;;4.45;69.28;100652.25;5056830;28;20473;-73
2022/03/03 00:27:49;;;;;;;0.20;0.20;;;;;;;4.51;69.33;100651.00;5056548;28;20395;-73
2022/03/03 00:30:15;;;;;;;0.20;0.20;;;;;;;4.49;69.90;100650.50;5038823;28;20029;-73
2022/03/03 00:32:41;;;;;;;0.20;0.20;;;;;;;4.54;69.92;100649.59;5056860;28;20025;-73
2022/03/03 00:35:08;;;;;;;0.20;0.20;;;;;;;4.49;69.61;100642.25;5039050;28;20025;-73
2022/03/03 00:37:34;;;;;;;0.20;0.20;;;;;;;4.62;69.45;100649.63;5038707;28;20083;-73
2022/03/03 00:40:00;;;;;;;0.20;0.20;;;;;;;4.57;69.15;100644.25;5056470;28;20040;-73
2022/03/03 00:42:26;;;;;;;0.20;0.20;;;;;;;4.41;69.31;100646.53;5039152;28;20025;-73
2022/03/03 00:44:51;;;;;;;0.20;0.20;;;;;;;4.37;70.76;100644.75;5038739;28;20086;-73
2022/03/03 00:47:17;;;;;;;0.20;0.20;;;;;;;4.33;70.82;100644.53;5038757;28;20485;-73
2022/03/03 00:49:42;;;;;;;0.20;0.20;;;;;;;4.33;70.46;100635.47;5056310;28;20112;-73
2022/03/03 00:52:08;;;;;;;0.20;0.20;;;;;;;4.35;70.82;100639.50;5037907;28;20054;-73
2022/03/03 00:54:33;;;;;;;0.20;0.20;;;;;;;4.38;70.33;100632.59;5056082;28;20033;-73
2022/03/03 00:56:59;;;;;;;0.20;0.20;;;;;;;4.33;70.89;100638.22;5056905;28;20036;-72
2022/03/03 00:59:24;;;;;;;0.20;0.20;;;;;;;4.34;70.29;100634.31;5038465;28;20036;-72
2022/03/03 01:01:50;;;;;;;0.20;0.20;;;;;;;4.28;69.94;100617.09;5038233;28;20036;-72
2022/03/03 01:04:16;;;;;;;0.20;0.20;;;;;;;4.29;70.22;100620.66;5055959;28;20530;-73
2022/03/03 01:06:41;;;;;;;0.20;0.20;;;;;;;4.28;70.79;100630.06;5038061;28;20036;-72
2022/03/03 01:09:07;;;;;;;0.20;0.20;;;;;;;4.14;71.33;100611.59;5055744;28;20182;-73
2022/03/03 01:11:33;;;;;;;0.20;0.20;;;;;;;4.26;71.14;100621.28;5056135;28;20037;-73
2022/03/03 01:13:58;;;;;;;0.20;0.20;;;;;;;4.32;70.79;100628.31;5056063;28;20037;-73
2022/03/03 01:16:24;;;;;;;0.17;0.17;;;;;;;4.27;70.98;100617.41;5054883;28;20028;-73
2022/03/03 01:18:49;;;;;;;0.20;0.20;;;;;;;4.25;71.47;100619.66;5055412;28;20050;-73
2022/03/03 01:21:15;;;;;;;0.20;0.20;;;;;;;4.29;71.22;100620.66;5055189;28;20364;-72
2022/03/03 01:23:43;;;;;;;0.20;0.20;;;;;;;4.36;70.42;100610.84;5036877;28;20040;-73
2022/03/03 01:26:09;;;;;;;0.20;0.20;;;;;;;4.37;70.32;100601.47;5038065;28;20095;-72
2022/03/03 01:28:34;;;;;;;0.20;0.20;;;;;;;4.34;70.54;100606.78;5037653;28;20419;-72
2022/03/03 01:31:00;;;;;;;0.20;0.20;;;;;;;4.41;70.44;100601.66;5037838;28;20032;-73
2022/03/03 01:33:26;;;;;;;0.20;0.20;;;;;;;4.38;69.96;100602.28;5037187;28;20116;-73
2022/03/03 01:35:54;;;;;;;0.20;0.20;;;;;;;4.44;69.73;100601.03;5036913;28;20102;-73
2022/03/03 01:38:20;;;;;;;0.20;0.20;;;;;;;4.34;69.75;100595.75;5055343;28;20040;-73
2022/03/03 01:40:46;;;;;;;0.20;0.20;;;;;;;4.26;70.69;100593.72;5037144;28;20029;-73
2022/03/03 01:43:11;;;;;;;0.20;0.20;;;;;;;4.33;70.64;100596.88;5036954;28;20171;-73
2022/03/03 01:45:37;;;;;;;0.20;0.20;;;;;;;4.24;70.59;100591.28;5054819;28;20033;-72
2022/03/03 01:48:03;;;;;;;0.20;0.20;;;;;;;4.14;70.99;100586.00;5037059;28;20107;-72
2022/03/03 01:50:29;;;;;;;0.20;0.20;;;;;;;4.24;70.95;100587.72;5037034;28;20045;-73
2022/03/03 01:52:57;;;;;;;0.20;0.20;;;;;;;4.10;70.69;100561.06;5037166;28;20036;-73
2022/03/03 01:55:24;;;;;;;0.20;0.20;;;;;;;4.23;71.29;100569.56;5037260;28;20025;-73
2022/03/03 01:57:50;;;;;;;0.20;0.20;;;;;;;4.17;72.19;100575.19;5037551;28;20029;-73
2022/03/03 02:00:16;;;;;;;0.20;0.20;;;;;;;4.22;71.74;100581.72;5055974;28;20036;-73
2022/03/03 02:02:42;;;;;;;0.20;0.20;;;;;;;4.18;71.77;100560.31;5035587;28;20034;-73
2022/03/03 02:05:08;;;;;;;0.20;0.20;;;;;;;4.22;71.93;100573.47;5051710;28;20142;-72
2022/03/03 02:07:37;;;;;;;0.20;0.20;;;;;;;4.23;72.15;100572.31;5037191;28;20033;-72
2022/03/03 02:10:04;;;;;;;0.20;0.20;;;;;;;4.27;71.72;100563.13;5054660;28;20056;-73
2022/03/03 02:12:30;;;;;;;0.20;0.20;;;;;;;4.28;71.57;100556.50;5037077;28;20036;-73
2022/03/03 02:14:56;;;;;;;0.20;0.20;;;;;;;4.25;71.56;100559.06;5036547;28;20021;-73
2022/03/03 02:17:25;;;;;;;0.20;0.20;;;;;;;4.07;71.72;100533.31;5036546;28;20055;-73
2022/03/03 02:19:50;;;;;;;0.20;0.20;;;;;;;4.27;72.25;100554.88;5036208;28;20045;-72
2022/03/03 02:22:16;;;;;;;0.20;0.20;;;;;;;4.18;71.55;100513.47;5037012;28;20348;-73
2022/03/03 02:24:43;;;;;;;0.20;0.20;;;;;;;4.28;71.56;100545.47;5036535;28;20025;-73
2022/03/03 02:27:10;;;;;;;0.10;0.10;;;;;;;4.29;72.07;100546.28;5053718;28;20052;-72
2022/03/03 02:29:37;;;;;;;0.20;0.20;;;;;;;4.31;72.31;100538.50;5036122;28;20029;-72
2022/03/03 02:32:04;;;;;;;0.20;0.20;;;;;;;4.33;72.14;100539.84;5054251;28;20028;-73
2022/03/03 02:34:30;;;;;;;0.20;0.20;;;;;;;4.29;72.08;100541.59;5036881;28;20621;-73
2022/03/03 02:36:56;;;;;;;0.20;0.20;;;;;;;4.22;72.40;100523.88;5054599;28;20021;-72
2022/03/03 02:39:21;;;;;;;0.20;0.20;;;;;;;4.24;71.84;100535.38;5036645;28;20359;-73
2022/03/03 02:41:47;;;;;;;0.20;0.20;;;;;;;4.27;71.88;100537.53;5053680;28;20036;-73
2022/03/03 02:44:12;;;;;;;0.20;0.20;;;;;;;4.15;71.76;100532.56;5035724;28;20037;-72
2022/03/03 02:46:39;;;;;;;0.20;0.20;;;;;;;4.17;71.56;100536.63;5045446;28;20488;-73
2022/03/03 02:49:08;;;;;;;0.22;0.22;;;;;;;4.08;72.31;100541.25;5053584;28;20497;-72
2022/03/03 02:51:34;;;;;;;0.20;0.20;;;;;;;4.06;72.60;100518.72;5036616;28;20379;-72
2022/03/03 02:54:00;;;;;;;0.20;0.20;;;;;;;4.13;73.20;100541.13;5032861;28;20052;-72
2022/03/03 02:56:27;;;;;;;0.20;0.20;;;;;;;4.16;73.33;100532.25;5052160;28;20033;-72
2022/03/03 02:58:52;;;;;;;0.20;0.20;;;;;;;4.28;72.00;100514.38;5035886;28;20029;-72
2022/03/03 03:01:18;;;;;;;0.20;0.20;;;;;;;4.33;71.82;100530.78;5036095;28;20041;-73
2022/03/03 03:03:43;;;;;;;0.20;0.20;;;;;;;4.32;72.18;100520.88;5052278;28;20182;-72
2022/03/03 03:06:12;;;;;;;0.20;0.20;;;;;;;4.51;72.26;100534.47;5036050;28;20120;-73
2022/03/03 03:08:38;;;;;;;0.20;0.20;;;;;;;4.36;71.51;100506.16;5027620;28;20044;-72
2022/03/03 03:11:04;;;;;;;0.20;0.20;;;;;;;4.38;71.81;100517.69;5054084;28;20037;-73
2022/03/03 03:13:32;;;;;;;0.20;0.20;;;;;;;4.30;72.52;100517.59;5036468;28;20444;-73
2022/03/03 03:15:58;;;;;;;0.20;0.20;;;;;;;4.26;73.06;100520.19;5035729;28;20488;-73
2022/03/03 03:18:24;;;;;;;0.20;0.20;;;;;;;4.33;72.58;100526.06;5035949;28;20025;-73
2022/03/03 03:20:52;;;;;;;0.20;0.20;;;;;;;4.46;72.26;100540.91;5035149;28;20060;-73
2022/03/03 03:23:19;;;;;;;0.20;0.20;;;;;;;4.58;71.63;100538.41;5053515;28;20035;-72
2022/03/03 03:25:48;;;;;;;0.20;0.20;;;;;;;4.42;71.72;100523.38;5035552;28;20021;-72
2022/03/03 03:28:15;;;;;;;0.20;0.20;;;;;;;4.45;72.35;100537.34;5053684;28;20033;-71
2022/03/03 03:30:41;;;;;;;0.20;0.20;;;;;;;4.41;72.56;100533.56;5035650;28;20091;-73
2022/03/03 03:33:07;;;;;;;0.20;0.20;;;;;;;4.36;72.70;100535.63;5054045;28;20033;-73
2022/03/03 03:35:33;;;;;;;0.20;0.20;;;;;;;4.37;73.25;100540.06;5035777;28;20518;-73
2022/03/03 03:37:59;;;;;;;0.20;0.20;;;;;;;4.35;73.29;100528.50;5053112;28;20033;-72
2022/03/03 03:40:25;;;;;;;0.20;0.20;;;;;;;4.37;73.54;100529.03;5037074;28;20029;-72
2022/03/03 03:42:51;;;;;;;0.20;0.20;;;;;;;4.39;73.52;100532.28;5039230;28;20020;-73
2022/03/03 03:45:17;;;;;;;0.20;0.20;;;;;;;4.42;73.58;100531.63;5057878;28;20036;-73
2022/03/03 03:47:42;;;;;;;0.20;0.20;;;;;;;4.43;73.61;100533.28;5058223;28;20041;-73
2022/03/03 03:50:10;;;;;;;0.20;0.20;;;;;;;4.38;72.77;100530.66;5039301;28;20044;-73
2022/03/03 03:52:39;;;;;;;0.20;0.20;;;;;;;4.40;73.29;100528.38;5039789;28;20021;-73
2022/03/03 03:55:07;;;;;;;0.20;0.20;;;;;;;4.41;72.57;100532.75;5039158;28;20116;-73
2022/03/03 03:57:33;;;;;;;0.20;0.20;;;;;;;4.44;73.23;100529.41;5056970;28;20061;-73
2022/03/03 03:59:59;;;;;;;0.20;0.20;;;;;;;4.50;73.03;100541.91;5039253;28;20029;-73
2022/03/03 04:02:24;;;;;;;0.20;0.20;;;;;;;4.47;72.82;100535.09;5057464;28;20456;-73
2022/03/03 04:04:50;;;;;;;0.20;0.20;;;;;;;4.53;72.76;100537.69;5056509;28;20021;-73
2022/03/03 04:07:16;;;;;;;0.20;0.20;;;;;;;4.48;72.78;100511.13;5038583;28;20021;-74
2022/03/03 04:09:41;;;;;;;0.20;0.20;;;;;;;4.47;72.48;100524.09;5039209;28;20025;-73
2022/03/03 04:12:07;;;;;;;0.20;0.20;;;;;;;4.51;73.23;100535.28;5038714;28;20455;-73
2022/03/03 04:14:36;;;;;;;0.20;0.20;;;;;;;4.48;72.90;100533.16;5056696;28;20044;-72
2022/03/03 04:17:02;;;;;;;0.20;0.20;;;;;;;4.53;73.11;100533.03;5056303;28;20102;-73
2022/03/03 04:19:27;;;;;;;0.20;0.20;;;;;;;4.53;73.15;100535.78;5038261;28;20092;-73
2022/03/03 04:21:53;;;;;;;0.20;0.20;;;;;;;4.55;73.27;100540.97;5039319;28;20101;-72
2022/03/03 04:24:18;;;;;;;0.20;0.20;;;;;;;4.58;73.26;100534.81;5038831;28;20107;-73
2022/03/03 04:26:44;;;;;;;0.20;0.20;;;;;;;4.64;72.84;100533.59;5038607;28;20025;-72
2022/03/03 04:29:09;;;;;;;0.20;0.20;;;;;;;4.58;72.88;100524.63;5056414;28;20025;-72
2022/03/03 04:31:35;;;;;;;0.20;0.20;;;;;;;4.57;72.67;100527.69;5038471;28;20107;-73
2022/03/03 04:34:01;;;;;;;0.20;0.20;;;;;;;4.54;72.92;100525.56;5038396;28;20109;-73
2022/03/03 04:36:27;;;;;;;0.20;0.20;;;;;;;4.50;73.14;100528.13;5056566;28;20060;-73
2022/03/03 04:38:53;;;;;;;0.20;0.20;;;;;;;4.43;72.81;100505.72;5038321;28;20114;-73
2022/03/03 04:41:18;;;;;;;0.20;0.20;;;;;;;4.51;72.63;100524.25;5038765;28;20044;-72
2022/03/03 04:43:44;;;;;;;0.20;0.20;;;;;;;4.50;73.46;100528.13;5055869;28;20499;-73
2022/03/03 04:46:09;;;;;;;0.20;0.20;;;;;;;4.37;73.32;100521.56;5038833;28;20040;-73
2022/03/03 04:48:36;;;;;;;0.20;0.20;;;;;;;4.44;73.63;100530.19;5055824;28;20493;-73
2022/03/03 04:51:02;;;;;;;0.20;0.20;;;;;;;4.42;73.55;100521.44;5038337;28;20384;-73
2022/03/03 04:53:28;;;;;;;0.20;0.20;;;;;;;4.26;73.78;100494.56;5056387;28;20415;-73
2022/03/03 04:55:58;;;;;;;0.20;0.20;;;;;;;4.26;73.73;100511.09;5039993;28;20529;-74
2022/03/03 04:58:26;;;;;;;0.20;0.20;;;;;;;4.39;73.34;100510.22;5039150;28;20031;-71
2022/03/03 05:00:52;;;;;;;0.20;0.20;;;;;;;4.42;73.42;100512.34;5038356;28;20128;-72
2022/03/03 05:03:18;;;;;;;0.20;0.20;;;;;;;4.30;73.61;100506.59;5038061;28;20442;-71
2022/03/03 05:05:43;;;;;;;0.20;0.20;;;;;;;4.31;73.39;100502.69;5038213;28;20060;-73
2022/03/03 05:08:09;;;;;;;0.20;0.20;;;;;;;4.29;73.22;100516.00;5037852;28;20530;-73
2022/03/03 05:10:35;;;;;;;0.20;0.20;;;;;;;4.19;73.73;100506.84;5038362;28;20033;-73
2022/03/03 05:13:01;;;;;;;0.20;0.20;;;;;;;4.15;74.29;100516.84;5038021;28;20024;-73
2022/03/03 05:15:28;;;;;;;0.20;0.20;;;;;;;4.16;74.61;100512.19;5037740;28;20525;-73
2022/03/03 05:17:54;;;;;;;0.20;0.20;;;;;;;4.18;74.13;100513.47;5037416;28;20025;-73
2022/03/03 05:20:19;;;;;;;0.20;0.20;;;;;;;4.23;73.30;100514.50;5037360;28;20045;-73
2022/03/03 05:22:45;;;;;;;0.20;0.20;;;;;;;4.31;74.28;100514.53;5037549;28;20029;-73
2022/03/03 05:25:10;;;;;;;0.20;0.20;;;;;;;4.25;74.30;100510.28;5055621;28;20028;-73
2022/03/03 05:27:42;;;;;;;0.30;0.30;;;;;;;4.22;74.22;100513.69;5037510;28;20025;-71
2022/03/03 05:30:09;;;;;;;0.20;0.20;;;;;;;4.27;74.62;100518.25;5055879;28;20052;-73
2022/03/03 05:32:36;;;;;;;0.20;0.20;;;;;;;4.23;74.17;100507.03;5037535;28;20115;-71
2022/03/03 05:35:06;;;;;;;0.20;0.20;;;;;;;4.22;74.49;100515.63;5054813;28;20036;-73
2022/03/03 05:37:32;;;;;;;0.20;0.20;;;;;;;4.28;74.57;100501.41;5037026;28;20063;-73
2022/03/03 05:39:58;;;;;;;0.20;0.20;;;;;;;4.26;74.49;100511.09;5055446;28;20029;-73
2022/03/03 05:42:24;;;;;;;0.20;0.20;;;;;;;4.36;74.13;100510.84;5037609;28;20040;-73
2022/03/03 05:44:50;;;;;;;0.20;0.20;;;;;;;4.40;74.89;100511.84;5037562;28;20467;-73
2022/03/03 05:47:17;;;;;;;0.20;0.20;;;;;;;4.41;75.08;100510.72;5037527;28;20032;-73
2022/03/03 05:49:45;;;;;;;0.20;0.20;;;;;;;4.63;73.84;100521.72;5054944;28;20108;-73
2022/03/03 05:52:12;;;;;;;0.20;0.20;;;;;;;4.62;73.55;100516.53;5037319;28;20060;-73
2022/03/03 05:54:37;;;;;;;0.20;0.20;;;;;;;4.68;72.61;100516.06;5037011;28;20029;-73
2022/03/03 05:57:26;;;;;;;0.20;0.20;;;;;;;4.47;73.63;100480.00;5037001;28;20047;-73
2022/03/03 05:59:52;;;;;;;0.20;0.20;;;;;;;4.80;73.82;100509.19;5026353;28;20067;-73
2022/03/03 06:02:21;;;;;;;0.20;0.20;;;;;;;5.02;72.87;100516.59;5036337;28;20029;-72
2022/03/03 06:04:50;;;;;;;0.20;0.20;;;;;;;5.04;71.90;100498.59;5054757;28;20395;-72
2022/03/03 06:07:39;;;;;;;0.20;0.20;;;;;;;5.15;72.23;100508.22;5054525;28;20033;-73
2022/03/03 06:10:06;;;;;;;0.20;0.20;;;;;;;5.61;71.46;100509.66;5036619;28;20025;-73
2022/03/03 06:12:47;;;;;;;0.20;0.20;;;;;;;5.98;69.55;100493.66;5054406;28;20091;-73
2022/03/03 06:15:14;;;;;;;0.32;0.20;;;;;;;6.30;68.84;100501.44;5033226;28;20033;-73
2022/03/03 06:17:42;;;;;;;0.20;0.20;;;;;;;6.29;67.48;100499.81;5036804;28;20379;-73
2022/03/03 06:20:08;;;;;;;0.20;0.20;;;;;;;6.37;67.23;100506.47;5053934;28;20119;-73
2022/03/03 06:22:34;;;;;;;0.20;0.20;;;;;;;6.47;66.51;100510.84;5036375;28;20056;-73
2022/03/03 06:25:00;;;;;;;0.20;0.20;;;;;;;6.54;66.27;100509.22;5036294;28;20056;-73
2022/03/03 06:27:26;;;;;;;0.17;0.17;;;;;;;6.53;66.12;100510.34;5053982;28;20048;-73
2022/03/03 06:29:54;;;;;;;0.20;0.20;;;;;;;6.56;66.37;100515.25;5054492;28;20086;-72
2022/03/03 06:32:20;;;;;;;0.20;0.20;;;;;;;6.68;65.76;100522.03;5054005;28;20057;-73
2022/03/03 06:34:45;;;;;;;0.20;0.20;;;;;;;6.81;65.32;100516.31;5037140;28;20083;-73
2022/03/03 06:37:11;;;;;;;0.20;0.20;;;;;;;6.93;65.15;100495.47;5036548;28;20043;-72
2022/03/03 06:39:36;;;;;;;0.20;0.20;;;;;;;7.44;64.68;100511.03;5036774;28;20029;-72
2022/03/03 06:42:03;;;;;;;0.20;0.20;;;;;;;7.92;62.45;100508.94;5036019;28;20040;-73
2022/03/03 06:44:28;;;;;;;0.20;0.20;;;;;;;8.32;61.12;100512.84;5054424;28;20033;-73
2022/03/03 06:46:55;;;;;;;0.20;0.20;;;;;;;8.52;60.00;100521.50;5053836;28;20082;-73
2022/03/03 06:49:21;;;;;;;0.20;0.20;;;;;;;8.52;60.56;100527.88;5036134;28;20028;-72
2022/03/03 06:51:48;;;;;;;0.20;0.20;;;;;;;8.56;59.50;100523.25;5053843;28;20033;-73
2022/03/03 06:54:19;;;;;;;0.20;0.20;;;;;;;8.60;59.76;100518.66;5035940;28;20033;-72
2022/03/03 06:56:51;;;;;;;0.20;0.20;;;;;;;8.72;59.50;100528.16;5032437;28;20026;-72
2022/03/03 06:59:19;;;;;;;0.20;0.20;;;;;;;8.60;59.12;100520.63;5033542;28;20025;-73
2022/03/03 07:01:48;;;;;;;0.20;0.20;;;;;;;8.54;59.40;100533.91;5036115;28;20441;-72
2022/03/03 07:04:14;;;;;;;0.20;0.20;;;;;;;8.58;59.00;100531.25;5053912;28;20025;-71
2022/03/03 07:06:42;;;;;;;0.20;0.20;;;;;;;8.55;58.45;100532.72;5035767;28;20029;-71
2022/03/03 07:09:08;;;;;;;0.20;0.20;;;;;;;8.53;58.77;100528.69;5054179;28;20063;-71
2022/03/03 07:11:36;;;;;;;0.20;0.20;;;;;;;8.56;58.67;100528.00;5035783;28;20040;-73
2022/03/03 07:14:02;;;;;;;0.20;0.20;;;;;;;8.70;58.16;100528.53;5035829;28;20037;-73
2022/03/03 07:16:40;;;;;;;0.20;0.20;;;;;;;8.77;57.92;100528.75;5039587;28;20041;-73
2022/03/03 07:19:25;;;;;;;0.20;0.20;;;;;;;8.93;57.72;100529.72;5058029;28;20131;-73
2022/03/03 07:22:14;;;;;;;0.20;0.20;;;;;;;9.01;57.02;100530.00;5040537;28;20025;-73
2022/03/03 07:25:05;;;;;;;0.20;0.20;;;;;;;9.18;56.75;100515.91;5039634;28;20025;-73
2022/03/03 07:27:30;;;;;;;0.20;0.20;;;;;;;9.03;55.47;100502.69;5040022;28;20064;-72
2022/03/03 07:30:00;;;;;;;0.20;0.20;;;;;;;9.12;56.24;100522.84;5057787;28;20052;-74
2022/03/03 07:32:35;;;;;;;0.20;0.20;;;;;;;9.35;56.17;100521.22;5057707;28;20032;-74
2022/03/03 07:35:12;;;;;;;0.20;0.20;;;;;;;9.45;54.35;100520.78;5039358;28;20032;-72
2022/03/03 07:37:49;;;;;;;0.20;0.20;;;;;;;9.74;55.21;100526.44;5039483;28;20112;-72
2022/03/03 07:40:16;;;;;;;0.20;0.20;;;;;;;10.01;54.64;100530.44;5039470;28;20075;-72
2022/03/03 07:42:42;;;;;;;0.20;0.20;;;;;;;10.35;52.50;100524.38;5057137;28;20052;-72
2022/03/03 07:45:09;;;;;;;0.17;0.17;;;;;;;10.66;51.37;100528.44;5057474;28;20124;-72
2022/03/03 07:47:35;;;;;;;0.20;0.20;;;;;;;11.16;51.16;100529.75;5039360;28;20037;-72
2022/03/03 07:50:02;;;;;;;0.20;0.20;;;;;;;11.89;49.19;100531.97;5039430;28;20037;-72
2022/03/03 07:52:28;;;;;;;0.20;0.20;;;;;;;12.68;47.14;100523.31;5024621;28;20491;-73
2022/03/03 07:54:54;;;;;;;0.20;0.20;;;;;;;13.17;46.69;100531.00;5040165;28;20071;-73
2022/03/03 07:57:22;;;;;;;0.20;0.20;;;;;;;14.10;42.66;100526.91;5058352;28;20482;-72
2022/03/03 07:59:58;;;;;;;0.20;0.20;;;;;;;14.32;41.25;100534.38;5023145;28;20041;-72
2022/03/03 08:02:26;;;;;;;0.20;0.20;;;;;;;14.66;42.31;100526.88;5057015;28;20094;-73
2022/03/03 08:04:52;;;;;;;0.20;0.20;;;;;;;14.68;39.56;100532.06;5039685;28;20036;-72
2022/03/03 08:07:19;;;;;;;0.15;0.15;;;;;;;14.28;41.08;100527.97;5039152;28;20486;-72
2022/03/03 08:09:47;;;;;;;0.13;0.13;;;;;;;14.13;40.31;100515.75;5056762;28;20468;-73
2022/03/03 08:12:15;;;;;;;0.10;0.10;;;;;;;14.94;39.37;100533.97;5023262;28;20037;-72
2022/03/03 08:14:44;;;;;;;0.20;0.20;;;;;;;14.12;40.68;100519.75;5040175;28;20029;-73
2022/03/03 08:17:13;;;;;;;0.10;0.10;;;;;;;13.69;42.19;100523.91;5041380;28;20029;-73
2022/03/03 08:19:38;;;;;;;0.20;0.20;;;;;;;13.46;42.53;100514.75;5040933;28;20380;-73
2022/03/03 08:22:05;;;;;;;0.10;0.10;;;;;;;13.54;42.40;100522.88;5040694;28;20032;-73
2022/03/03 08:24:35;;;;;;;0.10;0.10;;;;;;;12.93;43.45;100528.53;5057641;28;20037;-73
2022/03/03 08:27:03;;;;;;;0.20;0.20;;;;;;;12.57;45.26;100531.47;5056033;28;20108;-72
2022/03/03 08:29:28;;;;;;;0.20;0.20;;;;;;;11.98;45.46;100526.19;5056434;28;20487;-73
2022/03/03 08:31:56;;;;;;;0.20;0.20;;;;;;;11.95;46.80;100516.59;5056504;28;20113;-73
2022/03/03 08:34:35;;;;;;;0.20;0.20;;;;;;;12.49;45.60;100534.47;5038431;28;20033;-73
2022/03/03 08:37:06;;;;;;;0.20;0.20;;;;;;;12.29;45.90;100530.84;5038446;28;20029;-73
2022/03/03 08:39:38;;;;;;;0.17;0.17;;;;;;;12.87;45.66;100533.63;5056231;28;20024;-73
2022/03/03 08:42:08;;;;;;;0.20;0.20;;;;;;;13.02;44.58;100535.50;5038337;28;20056;-73
2022/03/03 08:44:36;;;;;;;0.10;0.10;;;;;;;12.01;46.93;100520.69;5056686;28;20035;-73
2022/03/03 08:47:06;;;;;;;0.20;0.20;;;;;;;11.89;47.25;100539.53;5038824;28;20021;-73
2022/03/03 08:49:39;;;;;;;0.15;0.15;;;;;;;11.67;45.99;100515.91;5056349;28;20418;-73
2022/03/03 08:52:10;;;;;;;0.20;0.20;;;;;;;11.90;47.40;100530.81;5038152;28;20483;-73
2022/03/03 08:54:35;;;;;;;0.20;0.20;;;;;;;11.57;47.59;100516.47;5038087;28;20060;-73
2022/03/03 08:57:01;;;;;;;0.20;0.20;;;;;;;11.20;49.47;100530.66;5038612;28;20059;-73
2022/03/03 08:59:27;;;;;;;0.10;0.10;;;;;;;11.17;49.78;100532.16;5038580;28;20469;-73
2022/03/03 09:01:53;;;;;;;0.10;0.10;;;;;;;11.45;48.76;100526.53;5037913;28;20388;-73
2022/03/03 09:04:19;;;;;;;0.10;0.10;;;;;;;11.38;48.89;100526.34;5055396;28;20476;-72
2022/03/03 09:06:45;;;;;;;0.20;0.20;;;;;;;10.89;50.19;100523.09;5055468;28;20029;-73
2022/03/03 09:09:11;;;;;;;0.20;0.20;;;;;;;10.88;51.06;100524.25;5038089;28;20451;-71
2022/03/03 09:11:38;;;;;;;0.10;0.10;;;;;;;11.16;50.71;100525.00;5038028;28;20072;-71
2022/03/03 09:14:04;;;;;;;0.20;0.20;;;;;;;11.35;50.25;100521.50;5055922;28;20535;-72
2022/03/03 09:16:29;;;;;;;0.20;0.20;;;;;;;12.33;48.00;100526.16;5055591;28;20107;-73
2022/03/03 09:18:55;;;;;;;0.20;0.20;;;;;;;12.26;47.07;100517.66;5034662;28;20060;-73
2022/03/03 09:21:20;;;;;;;0.20;0.20;;;;;;;12.53;46.30;100513.84;5035691;28;20464;-73
2022/03/03 09:23:46;;;;;;;0.10;0.10;;;;;;;12.65;46.63;100526.03;5037554;28;20390;-73
2022/03/03 09:26:12;;;;;;;0.10;0.10;;;;;;;12.23;47.46;100521.97;5037828;28;20029;-73
2022/03/03 09:28:38;;;;;;;0.10;0.10;;;;;;;11.81;48.20;100524.56;5038220;28;20029;-73
2022/03/03 09:31:03;;;;;;;0.20;0.20;;;;;;;11.65;48.97;100521.00;5037876;28;20422;-73
2022/03/03 09:33:29;;;;;;;0.20;0.20;;;;;;;11.49;50.00;100521.84;5055686;28;20037;-73
2022/03/03 09:35:54;;;;;;;0.17;0.17;;;;;;;11.54;49.89;100515.19;5037322;28;20025;-72
2022/03/03 09:38:20;;;;;;;0.17;0.17;;;;;;;11.48;50.62;100508.28;5036460;28;20078;-73
2022/03/03 09:40:48;;;;;;;0.20;0.20;;;;;;;11.75;48.98;100510.13;5037791;28;20075;-73
2022/03/03 09:43:13;;;;;;;0.20;0.20;;;;;;;11.72;49.55;100510.06;5037021;28;20063;-73
2022/03/03 09:45:39;;;;;;;0.10;0.10;;;;;;;12.43;47.89;100503.25;5037075;28;20123;-73
2022/03/03 09:48:06;;;;;;;0.20;0.20;;;;;;;12.01;49.29;100508.72;5037599;28;20071;-73
2022/03/03 09:50:35;;;;;;;0.20;0.20;;;;;;;12.28;48.27;100501.34;5037568;28;20098;-73
2022/03/03 09:53:10;;;;;;;0.20;0.20;;;;;;;12.38;47.78;100500.75;5055205;28;20074;-73
2022/03/03 09:55:38;;;;;;;0.17;0.17;;;;;;;11.96;48.89;100495.88;5037158;28;20028;-73
2022/03/03 09:58:06;;;;;;;0.20;0.20;;;;;;;11.88;49.31;100496.91;5054761;28;20074;-73
2022/03/03 10:00:37;;;;;;;0.20;0.20;;;;;;;12.04;49.14;100486.50;5054781;28;20025;-73
2022/03/03 10:03:09;;;;;;;0.17;0.17;;;;;;;12.31;48.80;100481.09;5036642;28;20036;-73
2022/03/03 10:05:42;;;;;;;0.10;0.10;;;;;;;12.84;47.07;100478.53;5054646;28;20413;-73
2022/03/03 10:08:10;;;;;;;0.20;0.20;;;;;;;13.16;46.37;100478.28;5037021;28;20041;-73
2022/03/03 10:10:39;;;;;;;0.10;0.10;;;;;;;12.47;47.37;100478.22;5036657;28;20025;-71
2022/03/03 10:13:04;;;;;;;0.20;0.20;;;;;;;12.31;48.10;100473.53;5037246;28;20384;-72
2022/03/03 10:15:32;;;;;;;0.10;0.10;;;;;;;12.10;49.32;100473.09;5036957;28;20086;-72
2022/03/03 10:18:02;;;;;;;0.20;0.20;;;;;;;12.23;48.03;100473.75;5054709;28;20107;-75
2022/03/03 10:20:29;;;;;;;0.10;0.10;;;;;;;12.88;46.85;100468.22;5036708;28;20139;-71
2022/03/03 10:22:58;;;;;;;0.10;0.10;;;;;;;14.21;44.24;100471.06;5055194;28;20017;-77
2022/03/03 10:25:31;;;;;;;0.20;0.20;;;;;;;14.43;42.33;100470.13;5037891;28;20433;-73
2022/03/03 10:28:15;;;;;;;0.10;0.10;;;;;;;15.36;40.93;100466.28;5036888;28;20506;-73
2022/03/03 10:30:57;;;;;;;0.10;0.10;;;;;;;14.83;41.48;100465.81;5038373;28;20040;-79
2022/03/03 10:33:25;;;;;;;0.10;0.10;;;;;;;15.07;40.62;100470.84;5036727;28;20040;-75
2022/03/03 10:36:03;;;;;;;0.10;0.10;;;;;;;14.81;41.63;100462.59;5036722;28;20379;-76
2022/03/03 10:38:36;;;;;;;0.10;0.10;;;;;;;14.18;43.53;100449.47;5054031;28;20033;-76
2022/03/03 10:41:01;;;;;;;0.10;0.10;;;;;;;14.37;42.50;100449.28;5037654;28;20124;-74
2022/03/03 10:43:27;;;;;;;0.10;0.10;;;;;;;14.27;41.77;100447.16;5054367;28;20100;-73
2022/03/03 10:45:59;;;;;;;0.10;0.10;;;;;;;14.66;41.57;100426.03;5035931;28;20581;-74
2022/03/03 10:48:26;;;;;;;0.20;0.20;;;;;;;15.96;40.00;100445.47;5035747;28;20028;-72
2022/03/03 10:50:54;;;;;;;0.10;0.10;;;;;;;16.21;37.81;100446.41;5053909;28;20116;-73
2022/03/03 10:53:24;;;;;;;0.10;0.10;;;;;;;15.74;39.42;100449.34;5035972;28;20033;-72
2022/03/03 10:56:05;;;;;;;0.10;0.10;;;;;;;15.89;39.86;100451.06;5036089;28;20079;-71
2022/03/03 10:58:57;;;;;;;0.10;0.10;;;;;;;16.31;39.05;100446.84;5054162;28;20048;-75
2022/03/03 11:01:29;;;;;;;0.10;0.10;;;;;;;16.57;38.12;100435.28;5054067;28;20056;-72
2022/03/03 11:03:56;;;;;;;0.10;0.10;;;;;;;16.64;38.07;100442.91;5052411;28;20027;-71
2022/03/03 11:06:25;;;;;;;0.10;0.10;;;;;;;15.58;39.39;100441.22;5035779;28;20040;-71
2022/03/03 11:08:53;;;;;;;0.10;0.10;;;;;;;15.25;40.27;100430.97;5036678;28;20455;-71
2022/03/03 11:11:23;;;;;;;0.10;0.10;;;;;;;15.04;39.90;100429.59;5036045;28;20028;-71
2022/03/03 11:13:49;;;;;;;0.10;0.10;;;;;;;14.77;41.42;100440.16;5035890;28;20056;-72
2022/03/03 11:19:44;;;;;;;0.10;0.10;;;;;;;14.56;41.63;100423.94;5056952;28;20091;-75
2022/03/03 11:22:14;;;;;;;0.10;0.10;;;;;;;14.26;42.27;100411.97;5032302;28;20133;-72
2022/03/03 11:24:41;;;;;;;0.10;0.10;;;;;;;13.95;43.03;100414.00;5045403;28;20169;-73
2022/03/03 11:27:08;;;;;;;0.10;0.10;;;;;;;13.56;44.06;100411.47;5054276;28;20115;-72
2022/03/03 11:29:37;;;;;;;0.17;0.17;;;;;;;13.73;43.45;100404.50;5019397;28;20091;-73
2022/03/03 11:32:09;;;;;;;0.10;0.10;;;;;;;13.96;43.60;100390.44;5035715;28;20024;-72
2022/03/03 11:34:35;;;;;;;0.10;0.10;;;;;;;13.62;44.70;100390.38;5037183;28;20128;-73
2022/03/03 11:37:08;;;;;;;0.20;0.20;;;;;;;13.91;43.94;100407.56;5035944;28;20052;-76